sensor_id;sensor_type;location;lat;lon;timestamp;P1;durP1;ratioP1;P2;durP2;ratioP2
45059;SDS011;30799;49.060;9.312;2023-04-21T00:01:47;3.50;;;2.53;;
45059;SDS011;30799;49.060;9.312;2023-04-21T00:04:13;2.65;;;2.45;;
45059;SDS011;30799;49.060;9.312;2023-04-21T00:06:40;2.35;;;2.15;;
45059;SDS011;30799;49.060;9.312;2023-04-21T00:09:07;2.45;;;2.25;;
45059;SDS011;30799;49.060;9.312;2023-04-21T00:11:34;2.17;;;2.08;;
45059;SDS011;30799;49.060;9.312;2023-04-21T00:14:01;2.10;;;2.00;;
45059;SDS011;30799;49.060;9.312;2023-04-21T00:16:28;2.80;;;2.60;;
45059;SDS011;30799;49.060;9.312;2023-04-21T00:18:54;2.53;;;2.33;;
45059;SDS011;30799;49.060;9.312;2023-04-21T00:21:21;2.50;;;2.30;;
45059;SDS011;30799;49.060;9.312;2023-04-21T00:23:47;2.60;;;2.40;;
45059;SDS011;30799;49.060;9.312;2023-04-21T00:26:15;2.30;;;2.13;;
45059;SDS011;30799;49.060;9.312;2023-04-21T00:28:41;2.72;;;2.53;;
45059;SDS011;30799;49.060;9.312;2023-04-21T00:31:08;2.15;;;2.05;;
45059;SDS011;30799;49.060;9.312;2023-04-21T00:33:35;2.20;;;2.10;;
45059;SDS011;30799;49.060;9.312;2023-04-21T00:36:01;2.55;;;2.35;;
45059;SDS011;30799;49.060;9.312;2023-04-21T00:38:28;3.55;;;2.50;;
45059;SDS011;30799;49.060;9.312;2023-04-21T00:40:55;2.30;;;2.10;;
45059;SDS011;30799;49.060;9.312;2023-04-21T00:43:21;2.40;;;2.20;;
45059;SDS011;30799;49.060;9.312;2023-04-21T00:45:48;2.33;;;2.13;;
45059;SDS011;30799;49.060;9.312;2023-04-21T00:48:14;2.70;;;1.95;;
45059;SDS011;30799;49.060;9.312;2023-04-21T00:50:42;2.20;;;2.10;;
45059;SDS011;30799;49.060;9.312;2023-04-21T00:53:09;2.55;;;2.35;;
45059;SDS011;30799;49.060;9.312;2023-04-21T00:55:37;2.38;;;2.25;;
45059;SDS011;30799;49.060;9.312;2023-04-21T00:58:04;2.20;;;2.10;;
45059;SDS011;30799;49.060;9.312;2023-04-21T01:00:31;2.53;;;2.13;;
45059;SDS011;30799;49.060;9.312;2023-04-21T01:02:58;2.10;;;2.00;;
45059;SDS011;30799;49.060;9.312;2023-04-21T01:05:26;2.13;;;1.92;;
45059;SDS011;30799;49.060;9.312;2023-04-21T01:07:53;2.55;;;2.35;;
45059;SDS011;30799;49.060;9.312;2023-04-21T01:10:20;2.30;;;2.17;;
45059;SDS011;30799;49.060;9.312;2023-04-21T01:12:46;2.10;;;2.00;;
45059;SDS011;30799;49.060;9.312;2023-04-21T01:15:14;2.30;;;2.20;;
45059;SDS011;30799;49.060;9.312;2023-04-21T01:17:42;2.10;;;2.00;;
45059;SDS011;30799;49.060;9.312;2023-04-21T01:20:12;2.42;;;2.22;;
45059;SDS011;30799;49.060;9.312;2023-04-21T01:22:40;2.38;;;2.00;;
45059;SDS011;30799;49.060;9.312;2023-04-21T01:25:07;2.50;;;2.30;;
45059;SDS011;30799;49.060;9.312;2023-04-21T01:27:34;2.00;;;1.90;;
45059;SDS011;30799;49.060;9.312;2023-04-21T01:30:01;2.10;;;2.00;;
45059;SDS011;30799;49.060;9.312;2023-04-21T01:32:29;2.20;;;2.05;;
45059;SDS011;30799;49.060;9.312;2023-04-21T01:34:57;2.20;;;2.10;;
45059;SDS011;30799;49.060;9.312;2023-04-21T01:37:28;2.30;;;2.10;;
45059;SDS011;30799;49.060;9.312;2023-04-21T01:39:58;2.25;;;2.05;;
45059;SDS011;30799;49.060;9.312;2023-04-21T01:42:27;2.15;;;2.00;;
45059;SDS011;30799;49.060;9.312;2023-04-21T01:44:54;2.08;;;1.95;;
45059;SDS011;30799;49.060;9.312;2023-04-21T01:47:21;1.90;;;1.80;;
45059;SDS011;30799;49.060;9.312;2023-04-21T01:49:49;2.30;;;2.10;;
45059;SDS011;30799;49.060;9.312;2023-04-21T01:52:16;2.38;;;1.80;;
45059;SDS011;30799;49.060;9.312;2023-04-21T01:54:42;2.00;;;1.90;;
45059;SDS011;30799;49.060;9.312;2023-04-21T01:57:09;2.15;;;1.98;;
45059;SDS011;30799;49.060;9.312;2023-04-21T01:59:36;1.90;;;1.80;;
45059;SDS011;30799;49.060;9.312;2023-04-21T02:02:03;2.17;;;2.05;;
45059;SDS011;30799;49.060;9.312;2023-04-21T02:04:30;2.03;;;1.83;;
45059;SDS011;30799;49.060;9.312;2023-04-21T02:06:56;1.83;;;1.73;;
45059;SDS011;30799;49.060;9.312;2023-04-21T02:09:23;1.70;;;1.60;;
45059;SDS011;30799;49.060;9.312;2023-04-21T02:11:50;1.90;;;1.80;;
45059;SDS011;30799;49.060;9.312;2023-04-21T02:14:17;2.35;;;2.15;;
45059;SDS011;30799;49.060;9.312;2023-04-21T02:16:43;2.03;;;1.92;;
45059;SDS011;30799;49.060;9.312;2023-04-21T02:19:10;1.95;;;1.85;;
45059;SDS011;30799;49.060;9.312;2023-04-21T02:21:37;2.00;;;1.90;;
45059;SDS011;30799;49.060;9.312;2023-04-21T02:24:04;2.25;;;2.15;;
45059;SDS011;30799;49.060;9.312;2023-04-21T02:26:31;2.03;;;1.83;;
45059;SDS011;30799;49.060;9.312;2023-04-21T02:28:58;1.95;;;1.85;;
45059;SDS011;30799;49.060;9.312;2023-04-21T02:31:24;1.95;;;1.85;;
45059;SDS011;30799;49.060;9.312;2023-04-21T02:33:51;1.90;;;1.80;;
45059;SDS011;30799;49.060;9.312;2023-04-21T02:36:19;2.25;;;1.83;;
45059;SDS011;30799;49.060;9.312;2023-04-21T02:38:46;2.17;;;1.98;;
45059;SDS011;30799;49.060;9.312;2023-04-21T02:41:13;2.00;;;1.90;;
45059;SDS011;30799;49.060;9.312;2023-04-21T02:43:39;1.70;;;1.60;;
45059;SDS011;30799;49.060;9.312;2023-04-21T02:46:06;2.10;;;2.00;;
45059;SDS011;30799;49.060;9.312;2023-04-21T02:48:34;1.77;;;1.67;;
45059;SDS011;30799;49.060;9.312;2023-04-21T02:51:01;1.98;;;1.88;;
45059;SDS011;30799;49.060;9.312;2023-04-21T02:53:29;1.77;;;1.67;;
45059;SDS011;30799;49.060;9.312;2023-04-21T02:55:56;1.70;;;1.60;;
45059;SDS011;30799;49.060;9.312;2023-04-21T02:58:23;2.00;;;1.90;;
45059;SDS011;30799;49.060;9.312;2023-04-21T03:00:49;1.80;;;1.70;;
45059;SDS011;30799;49.060;9.312;2023-04-21T03:03:16;2.15;;;1.67;;
45059;SDS011;30799;49.060;9.312;2023-04-21T03:05:43;1.80;;;1.70;;
45059;SDS011;30799;49.060;9.312;2023-04-21T03:08:10;1.80;;;1.70;;
45059;SDS011;30799;49.060;9.312;2023-04-21T03:10:37;2.03;;;1.83;;
45059;SDS011;30799;49.060;9.312;2023-04-21T03:13:04;1.90;;;1.80;;
45059;SDS011;30799;49.060;9.312;2023-04-21T03:15:31;1.60;;;1.50;;
45059;SDS011;30799;49.060;9.312;2023-04-21T03:17:57;1.77;;;1.67;;
45059;SDS011;30799;49.060;9.312;2023-04-21T03:20:24;1.90;;;1.80;;
45059;SDS011;30799;49.060;9.312;2023-04-21T03:22:52;1.90;;;1.80;;
45059;SDS011;30799;49.060;9.312;2023-04-21T03:25:19;1.80;;;1.70;;
45059;SDS011;30799;49.060;9.312;2023-04-21T03:27:46;1.85;;;1.75;;
45059;SDS011;30799;49.060;9.312;2023-04-21T03:30:13;1.75;;;1.65;;
45059;SDS011;30799;49.060;9.312;2023-04-21T03:32:40;1.90;;;1.80;;
45059;SDS011;30799;49.060;9.312;2023-04-21T03:35:07;1.80;;;1.70;;
45059;SDS011;30799;49.060;9.312;2023-04-21T03:37:33;1.63;;;1.52;;
45059;SDS011;30799;49.060;9.312;2023-04-21T03:40:00;1.75;;;1.65;;
45059;SDS011;30799;49.060;9.312;2023-04-21T03:42:27;1.80;;;1.70;;
45059;SDS011;30799;49.060;9.312;2023-04-21T03:44:55;1.92;;;1.83;;
45059;SDS011;30799;49.060;9.312;2023-04-21T03:47:21;1.85;;;1.73;;
45059;SDS011;30799;49.060;9.312;2023-04-21T03:49:49;1.92;;;1.83;;
45059;SDS011;30799;49.060;9.312;2023-04-21T03:52:16;1.60;;;1.50;;
45059;SDS011;30799;49.060;9.312;2023-04-21T03:54:42;1.63;;;1.52;;
45059;SDS011;30799;49.060;9.312;2023-04-21T03:57:09;1.73;;;1.63;;
45059;SDS011;30799;49.060;9.312;2023-04-21T03:59:36;1.48;;;1.38;;
45059;SDS011;30799;49.060;9.312;2023-04-21T04:02:02;1.80;;;1.70;;
45059;SDS011;30799;49.060;9.312;2023-04-21T04:04:29;1.58;;;1.48;;
45059;SDS011;30799;49.060;9.312;2023-04-21T04:06:56;1.60;;;1.50;;
45059;SDS011;30799;49.060;9.312;2023-04-21T04:09:23;1.85;;;1.75;;
45059;SDS011;30799;49.060;9.312;2023-04-21T04:11:50;1.65;;;1.55;;
45059;SDS011;30799;49.060;9.312;2023-04-21T04:14:17;1.70;;;1.60;;
45059;SDS011;30799;49.060;9.312;2023-04-21T04:16:44;4.35;;;3.88;;
45059;SDS011;30799;49.060;9.312;2023-04-21T04:19:10;4.60;;;4.20;;
45059;SDS011;30799;49.060;9.312;2023-04-21T04:21:37;6.18;;;5.32;;
45059;SDS011;30799;49.060;9.312;2023-04-21T04:24:04;7.80;;;5.72;;
45059;SDS011;30799;49.060;9.312;2023-04-21T04:26:31;6.60;;;6.00;;
45059;SDS011;30799;49.060;9.312;2023-04-21T04:31:31;6.10;;;5.50;;
45059;SDS011;30799;49.060;9.312;2023-04-21T04:33:57;6.07;;;5.57;;
45059;SDS011;30799;49.060;9.312;2023-04-21T04:38:52;4.25;;;3.85;;
45059;SDS011;30799;49.060;9.312;2023-04-21T04:41:19;3.30;;;3.00;;
45059;SDS011;30799;49.060;9.312;2023-04-21T04:43:46;4.20;;;2.38;;
45059;SDS011;30799;49.060;9.312;2023-04-21T04:46:12;6.47;;;2.70;;
45059;SDS011;30799;49.060;9.312;2023-04-21T04:48:39;4.15;;;2.13;;
45059;SDS011;30799;49.060;9.312;2023-04-21T04:51:06;5.60;;;2.38;;
45059;SDS011;30799;49.060;9.312;2023-04-21T04:53:33;5.45;;;2.45;;
45059;SDS011;30799;49.060;9.312;2023-04-21T04:55:59;6.95;;;2.80;;
45059;SDS011;30799;49.060;9.312;2023-04-21T04:58:26;12.05;;;2.60;;
45059;SDS011;30799;49.060;9.312;2023-04-21T05:00:53;9.30;;;3.00;;
45059;SDS011;30799;49.060;9.312;2023-04-21T05:03:19;4.22;;;2.83;;
45059;SDS011;30799;49.060;9.312;2023-04-21T05:05:46;5.00;;;2.92;;
45059;SDS011;30799;49.060;9.312;2023-04-21T05:08:13;9.60;;;3.15;;
45059;SDS011;30799;49.060;9.312;2023-04-21T05:10:43;5.65;;;2.70;;
45059;SDS011;30799;49.060;9.312;2023-04-21T05:13:09;4.22;;;2.38;;
45059;SDS011;30799;49.060;9.312;2023-04-21T05:15:36;4.00;;;2.50;;
45059;SDS011;30799;49.060;9.312;2023-04-21T05:18:03;5.43;;;2.35;;
45059;SDS011;30799;49.060;9.312;2023-04-21T05:20:29;7.43;;;2.63;;
45059;SDS011;30799;49.060;9.312;2023-04-21T05:22:56;4.22;;;2.35;;
45059;SDS011;30799;49.060;9.312;2023-04-21T05:25:23;3.45;;;2.38;;
45059;SDS011;30799;49.060;9.312;2023-04-21T05:27:50;2.97;;;2.30;;
45059;SDS011;30799;49.060;9.312;2023-04-21T05:30:16;5.65;;;2.17;;
45059;SDS011;30799;49.060;9.312;2023-04-21T05:32:43;3.40;;;2.20;;
45059;SDS011;30799;49.060;9.312;2023-04-21T05:35:10;2.50;;;2.30;;
45059;SDS011;30799;49.060;9.312;2023-04-21T05:37:36;2.92;;;2.00;;
45059;SDS011;30799;49.060;9.312;2023-04-21T05:40:03;2.33;;;2.00;;
45059;SDS011;30799;49.060;9.312;2023-04-21T05:42:30;5.30;;;1.92;;
45059;SDS011;30799;49.060;9.312;2023-04-21T05:44:57;5.57;;;1.90;;
45059;SDS011;30799;49.060;9.312;2023-04-21T05:47:23;4.80;;;2.40;;
45059;SDS011;30799;49.060;9.312;2023-04-21T05:49:50;4.00;;;2.25;;
45059;SDS011;30799;49.060;9.312;2023-04-21T05:52:19;2.05;;;1.83;;
45059;SDS011;30799;49.060;9.312;2023-04-21T05:54:46;3.42;;;2.17;;
45059;SDS011;30799;49.060;9.312;2023-04-21T05:57:13;3.20;;;2.10;;
45059;SDS011;30799;49.060;9.312;2023-04-21T05:59:41;2.30;;;1.80;;
45059;SDS011;30799;49.060;9.312;2023-04-21T06:02:08;3.22;;;1.90;;
45059;SDS011;30799;49.060;9.312;2023-04-21T06:04:36;6.05;;;2.08;;
45059;SDS011;30799;49.060;9.312;2023-04-21T06:07:07;2.72;;;1.95;;
45059;SDS011;30799;49.060;9.312;2023-04-21T06:09:35;1.88;;;1.70;;
45059;SDS011;30799;49.060;9.312;2023-04-21T06:12:02;2.67;;;1.77;;
45059;SDS011;30799;49.060;9.312;2023-04-21T06:14:29;2.35;;;1.90;;
45059;SDS011;30799;49.060;9.312;2023-04-21T06:16:56;2.00;;;1.80;;
45059;SDS011;30799;49.060;9.312;2023-04-21T06:19:22;2.28;;;2.00;;
45059;SDS011;30799;49.060;9.312;2023-04-21T06:21:49;2.50;;;1.85;;
45059;SDS011;30799;49.060;9.312;2023-04-21T06:24:16;4.82;;;2.15;;
45059;SDS011;30799;49.060;9.312;2023-04-21T06:26:50;3.05;;;1.70;;
45059;SDS011;30799;49.060;9.312;2023-04-21T06:29:18;2.30;;;1.90;;
45059;SDS011;30799;49.060;9.312;2023-04-21T06:31:46;3.15;;;1.92;;
45059;SDS011;30799;49.060;9.312;2023-04-21T06:34:13;3.90;;;2.25;;
45059;SDS011;30799;49.060;9.312;2023-04-21T06:36:40;2.25;;;1.75;;
45059;SDS011;30799;49.060;9.312;2023-04-21T06:39:06;1.80;;;1.67;;
45059;SDS011;30799;49.060;9.312;2023-04-21T06:41:33;3.42;;;1.85;;
45059;SDS011;30799;49.060;9.312;2023-04-21T06:43:59;3.90;;;1.88;;
45059;SDS011;30799;49.060;9.312;2023-04-21T06:46:26;1.65;;;1.55;;
45059;SDS011;30799;49.060;9.312;2023-04-21T06:48:53;1.85;;;1.67;;
45059;SDS011;30799;49.060;9.312;2023-04-21T06:51:19;2.55;;;1.77;;
45059;SDS011;30799;49.060;9.312;2023-04-21T06:53:46;1.90;;;1.63;;
45059;SDS011;30799;49.060;9.312;2023-04-21T06:56:13;2.10;;;1.90;;
45059;SDS011;30799;49.060;9.312;2023-04-21T06:58:39;1.88;;;1.52;;
45059;SDS011;30799;49.060;9.312;2023-04-21T07:01:06;2.03;;;1.77;;
45059;SDS011;30799;49.060;9.312;2023-04-21T07:03:33;3.10;;;1.73;;
45059;SDS011;30799;49.060;9.312;2023-04-21T07:06:00;3.58;;;1.90;;
45059;SDS011;30799;49.060;9.312;2023-04-21T07:08:26;2.47;;;1.88;;
45059;SDS011;30799;49.060;9.312;2023-04-21T07:10:53;1.88;;;1.73;;
45059;SDS011;30799;49.060;9.312;2023-04-21T07:13:20;1.92;;;1.75;;
45059;SDS011;30799;49.060;9.312;2023-04-21T07:15:47;1.80;;;1.70;;
45059;SDS011;30799;49.060;9.312;2023-04-21T07:18:13;1.70;;;1.60;;
45059;SDS011;30799;49.060;9.312;2023-04-21T07:20:40;1.88;;;1.67;;
45059;SDS011;30799;49.060;9.312;2023-04-21T07:23:07;2.47;;;1.65;;
45059;SDS011;30799;49.060;9.312;2023-04-21T07:25:33;2.78;;;1.65;;
45059;SDS011;30799;49.060;9.312;2023-04-21T07:28:00;1.50;;;1.40;;
45059;SDS011;30799;49.060;9.312;2023-04-21T07:30:28;1.60;;;1.50;;
45059;SDS011;30799;49.060;9.312;2023-04-21T07:32:56;1.77;;;1.67;;
45059;SDS011;30799;49.060;9.312;2023-04-21T07:35:23;1.92;;;1.70;;
45059;SDS011;30799;49.060;9.312;2023-04-21T07:37:50;1.90;;;1.60;;
45059;SDS011;30799;49.060;9.312;2023-04-21T07:40:17;2.25;;;1.80;;
45059;SDS011;30799;49.060;9.312;2023-04-21T07:42:44;1.80;;;1.65;;
45059;SDS011;30799;49.060;9.312;2023-04-21T07:45:11;1.92;;;1.60;;
45059;SDS011;30799;49.060;9.312;2023-04-21T07:47:37;1.75;;;1.40;;
45059;SDS011;30799;49.060;9.312;2023-04-21T07:50:04;1.60;;;1.50;;
45059;SDS011;30799;49.060;9.312;2023-04-21T07:52:31;1.80;;;1.60;;
45059;SDS011;30799;49.060;9.312;2023-04-21T07:54:58;1.88;;;1.70;;
45059;SDS011;30799;49.060;9.312;2023-04-21T07:57:25;1.67;;;1.50;;
45059;SDS011;30799;49.060;9.312;2023-04-21T07:59:52;1.70;;;1.60;;
45059;SDS011;30799;49.060;9.312;2023-04-21T08:02:18;2.10;;;1.80;;
45059;SDS011;30799;49.060;9.312;2023-04-21T08:04:45;2.08;;;1.88;;
45059;SDS011;30799;49.060;9.312;2023-04-21T08:07:12;1.70;;;1.60;;
45059;SDS011;30799;49.060;9.312;2023-04-21T08:09:40;1.58;;;1.40;;
45059;SDS011;30799;49.060;9.312;2023-04-21T08:12:07;1.52;;;1.42;;
45059;SDS011;30799;49.060;9.312;2023-04-21T08:14:33;1.70;;;1.60;;
45059;SDS011;30799;49.060;9.312;2023-04-21T08:17:00;1.50;;;1.40;;
45059;SDS011;30799;49.060;9.312;2023-04-21T08:19:27;2.25;;;1.50;;
45059;SDS011;30799;49.060;9.312;2023-04-21T08:21:54;2.00;;;1.80;;
45059;SDS011;30799;49.060;9.312;2023-04-21T08:24:21;1.92;;;1.40;;
45059;SDS011;30799;49.060;9.312;2023-04-21T08:26:48;1.50;;;1.40;;
45059;SDS011;30799;49.060;9.312;2023-04-21T08:29:14;1.60;;;1.50;;
45059;SDS011;30799;49.060;9.312;2023-04-21T08:31:41;1.75;;;1.65;;
45059;SDS011;30799;49.060;9.312;2023-04-21T08:34:09;1.58;;;1.45;;
45059;SDS011;30799;49.060;9.312;2023-04-21T08:36:36;1.60;;;1.50;;
45059;SDS011;30799;49.060;9.312;2023-04-21T08:39:02;2.03;;;1.50;;
45059;SDS011;30799;49.060;9.312;2023-04-21T08:41:29;1.70;;;1.52;;
45059;SDS011;30799;49.060;9.312;2023-04-21T08:43:56;1.50;;;1.40;;
45059;SDS011;30799;49.060;9.312;2023-04-21T08:46:23;1.70;;;1.50;;
45059;SDS011;30799;49.060;9.312;2023-04-21T08:48:49;1.63;;;1.50;;
45059;SDS011;30799;49.060;9.312;2023-04-21T08:51:20;1.60;;;1.50;;
45059;SDS011;30799;49.060;9.312;2023-04-21T08:53:49;1.83;;;1.73;;
45059;SDS011;30799;49.060;9.312;2023-04-21T08:56:15;1.65;;;1.40;;
45059;SDS011;30799;49.060;9.312;2023-04-21T08:58:42;1.70;;;1.60;;
45059;SDS011;30799;49.060;9.312;2023-04-21T09:01:09;1.65;;;1.55;;
45059;SDS011;30799;49.060;9.312;2023-04-21T09:03:37;1.83;;;1.73;;
45059;SDS011;30799;49.060;9.312;2023-04-21T09:06:05;2.03;;;1.58;;
45059;SDS011;30799;49.060;9.312;2023-04-21T09:08:36;1.42;;;1.33;;
45059;SDS011;30799;49.060;9.312;2023-04-21T09:11:05;1.80;;;1.70;;
45059;SDS011;30799;49.060;9.312;2023-04-21T09:13:32;1.33;;;1.20;;
45059;SDS011;30799;49.060;9.312;2023-04-21T09:16:04;1.88;;;1.45;;
45059;SDS011;30799;49.060;9.312;2023-04-21T09:18:40;1.60;;;1.50;;
45059;SDS011;30799;49.060;9.312;2023-04-21T09:21:10;1.65;;;1.40;;
45059;SDS011;30799;49.060;9.312;2023-04-21T09:23:42;1.70;;;1.60;;
45059;SDS011;30799;49.060;9.312;2023-04-21T09:28:41;1.50;;;1.40;;
45059;SDS011;30799;49.060;9.312;2023-04-21T09:31:11;1.60;;;1.50;;
45059;SDS011;30799;49.060;9.312;2023-04-21T09:33:47;1.65;;;1.55;;
45059;SDS011;30799;49.060;9.312;2023-04-21T09:36:26;1.73;;;1.63;;
45059;SDS011;30799;49.060;9.312;2023-04-21T09:41:42;1.50;;;1.30;;
45059;SDS011;30799;49.060;9.312;2023-04-21T09:44:09;1.50;;;1.40;;
45059;SDS011;30799;49.060;9.312;2023-04-21T09:46:36;1.42;;;1.33;;
45059;SDS011;30799;49.060;9.312;2023-04-21T09:49:08;1.50;;;1.40;;
45059;SDS011;30799;49.060;9.312;2023-04-21T09:51:38;1.75;;;1.63;;
45059;SDS011;30799;49.060;9.312;2023-04-21T09:54:29;2.05;;;1.60;;
45059;SDS011;30799;49.060;9.312;2023-04-21T09:56:58;1.33;;;1.27;;
45059;SDS011;30799;49.060;9.312;2023-04-21T10:04:30;1.50;;;1.40;;
45059;SDS011;30799;49.060;9.312;2023-04-21T10:06:59;1.60;;;1.50;;
45059;SDS011;30799;49.060;9.312;2023-04-21T10:09:26;1.63;;;1.50;;
45059;SDS011;30799;49.060;9.312;2023-04-21T10:11:59;1.20;;;1.20;;
45059;SDS011;30799;49.060;9.312;2023-04-21T10:14:27;1.50;;;1.40;;
45059;SDS011;30799;49.060;9.312;2023-04-21T10:16:55;1.23;;;1.17;;
45059;SDS011;30799;49.060;9.312;2023-04-21T10:19:32;1.50;;;1.40;;
45059;SDS011;30799;49.060;9.312;2023-04-21T10:22:07;1.48;;;1.38;;
45059;SDS011;30799;49.060;9.312;2023-04-21T10:24:36;1.40;;;1.30;;
45059;SDS011;30799;49.060;9.312;2023-04-21T10:27:10;1.40;;;1.30;;
45059;SDS011;30799;49.060;9.312;2023-04-21T10:29:37;1.50;;;1.40;;
45059;SDS011;30799;49.060;9.312;2023-04-21T10:32:39;1.38;;;1.27;;
45059;SDS011;30799;49.060;9.312;2023-04-21T10:35:08;1.50;;;1.40;;
45059;SDS011;30799;49.060;9.312;2023-04-21T10:37:35;1.77;;;1.35;;
45059;SDS011;30799;49.060;9.312;2023-04-21T10:40:02;1.77;;;1.40;;
45059;SDS011;30799;49.060;9.312;2023-04-21T10:42:34;1.67;;;1.58;;
45059;SDS011;30799;49.060;9.312;2023-04-21T10:45:08;1.30;;;1.30;;
45059;SDS011;30799;49.060;9.312;2023-04-21T10:50:10;1.40;;;1.30;;
45059;SDS011;30799;49.060;9.312;2023-04-21T10:52:38;1.42;;;1.33;;
45059;SDS011;30799;49.060;9.312;2023-04-21T10:55:12;0.90;;;0.90;;
45059;SDS011;30799;49.060;9.312;2023-04-21T10:57:41;1.45;;;1.35;;
45059;SDS011;30799;49.060;9.312;2023-04-21T11:00:11;1.30;;;1.20;;
45059;SDS011;30799;49.060;9.312;2023-04-21T11:02:40;1.60;;;1.50;;
45059;SDS011;30799;49.060;9.312;2023-04-21T11:05:10;1.30;;;1.25;;
45059;SDS011;30799;49.060;9.312;2023-04-21T11:07:37;1.45;;;1.35;;
45059;SDS011;30799;49.060;9.312;2023-04-21T11:10:05;1.15;;;1.15;;
45059;SDS011;30799;49.060;9.312;2023-04-21T11:12:33;1.50;;;1.40;;
45059;SDS011;30799;49.060;9.312;2023-04-21T11:15:07;1.40;;;1.30;;
45059;SDS011;30799;49.060;9.312;2023-04-21T11:17:36;1.30;;;1.20;;
45059;SDS011;30799;49.060;9.312;2023-04-21T11:20:08;1.30;;;1.20;;
45059;SDS011;30799;49.060;9.312;2023-04-21T11:22:35;1.45;;;1.33;;
45059;SDS011;30799;49.060;9.312;2023-04-21T11:25:03;1.52;;;1.42;;
45059;SDS011;30799;49.060;9.312;2023-04-21T11:27:30;1.40;;;1.30;;
45059;SDS011;30799;49.060;9.312;2023-04-21T11:29:56;1.10;;;1.10;;
45059;SDS011;30799;49.060;9.312;2023-04-21T11:32:23;1.60;;;1.50;;
45059;SDS011;30799;49.060;9.312;2023-04-21T11:34:50;1.35;;;1.25;;
45059;SDS011;30799;49.060;9.312;2023-04-21T11:37:23;1.60;;;1.50;;
45059;SDS011;30799;49.060;9.312;2023-04-21T11:39:57;1.70;;;1.60;;
45059;SDS011;30799;49.060;9.312;2023-04-21T11:42:25;1.60;;;1.50;;
45059;SDS011;30799;49.060;9.312;2023-04-21T11:44:55;1.40;;;1.30;;
45059;SDS011;30799;49.060;9.312;2023-04-21T11:47:23;1.48;;;1.38;;
45059;SDS011;30799;49.060;9.312;2023-04-21T11:49:55;1.25;;;1.25;;
45059;SDS011;30799;49.060;9.312;2023-04-21T11:55:09;1.33;;;1.23;;
45059;SDS011;30799;49.060;9.312;2023-04-21T11:57:38;1.60;;;1.50;;
45059;SDS011;30799;49.060;9.312;2023-04-21T12:00:07;1.45;;;1.35;;
45059;SDS011;30799;49.060;9.312;2023-04-21T12:02:41;1.48;;;1.38;;
45059;SDS011;30799;49.060;9.312;2023-04-21T12:10:08;1.55;;;1.45;;
45059;SDS011;30799;49.060;9.312;2023-04-21T12:12:37;1.20;;;1.20;;
45059;SDS011;30799;49.060;9.312;2023-04-21T12:15:05;1.45;;;1.35;;
45059;SDS011;30799;49.060;9.312;2023-04-21T12:17:45;1.33;;;1.23;;
45059;SDS011;30799;49.060;9.312;2023-04-21T12:20:20;1.40;;;1.30;;
45059;SDS011;30799;49.060;9.312;2023-04-21T12:22:48;1.35;;;1.23;;
45059;SDS011;30799;49.060;9.312;2023-04-21T12:25:15;1.40;;;1.30;;
45059;SDS011;30799;49.060;9.312;2023-04-21T12:27:49;1.35;;;1.30;;
45059;SDS011;30799;49.060;9.312;2023-04-21T12:30:17;2.13;;;1.60;;
45059;SDS011;30799;49.060;9.312;2023-04-21T12:32:45;1.70;;;1.60;;
45059;SDS011;30799;49.060;9.312;2023-04-21T12:35:13;1.20;;;1.10;;
45059;SDS011;30799;49.060;9.312;2023-04-21T12:37:40;1.48;;;1.38;;
45059;SDS011;30799;49.060;9.312;2023-04-21T12:40:07;1.67;;;1.48;;
45059;SDS011;30799;49.060;9.312;2023-04-21T12:42:34;1.27;;;1.20;;
45059;SDS011;30799;49.060;9.312;2023-04-21T12:45:03;1.80;;;1.70;;
45059;SDS011;30799;49.060;9.312;2023-04-21T12:47:31;1.30;;;1.20;;
45059;SDS011;30799;49.060;9.312;2023-04-21T12:49:57;1.42;;;1.33;;
45059;SDS011;30799;49.060;9.312;2023-04-21T12:52:24;2.35;;;1.50;;
45059;SDS011;30799;49.060;9.312;2023-04-21T12:54:51;1.30;;;1.20;;
45059;SDS011;30799;49.060;9.312;2023-04-21T12:57:19;1.40;;;1.30;;
45059;SDS011;30799;49.060;9.312;2023-04-21T12:59:46;1.30;;;1.20;;
45059;SDS011;30799;49.060;9.312;2023-04-21T13:02:13;1.55;;;1.45;;
45059;SDS011;30799;49.060;9.312;2023-04-21T13:04:40;1.40;;;1.30;;
45059;SDS011;30799;49.060;9.312;2023-04-21T13:07:07;1.30;;;1.20;;
45059;SDS011;30799;49.060;9.312;2023-04-21T13:09:34;1.60;;;1.50;;
45059;SDS011;30799;49.060;9.312;2023-04-21T13:12:01;1.48;;;1.38;;
45059;SDS011;30799;49.060;9.312;2023-04-21T13:14:28;1.48;;;1.33;;
45059;SDS011;30799;49.060;9.312;2023-04-21T13:16:55;1.52;;;1.42;;
45059;SDS011;30799;49.060;9.312;2023-04-21T13:19:22;1.50;;;1.40;;
45059;SDS011;30799;49.060;9.312;2023-04-21T13:21:49;1.52;;;1.42;;
45059;SDS011;30799;49.060;9.312;2023-04-21T13:24:19;1.40;;;1.30;;
45059;SDS011;30799;49.060;9.312;2023-04-21T13:26:46;1.40;;;1.30;;
45059;SDS011;30799;49.060;9.312;2023-04-21T13:29:12;1.30;;;1.20;;
45059;SDS011;30799;49.060;9.312;2023-04-21T13:31:39;1.40;;;1.30;;
45059;SDS011;30799;49.060;9.312;2023-04-21T13:34:06;1.30;;;1.20;;
45059;SDS011;30799;49.060;9.312;2023-04-21T13:36:32;1.13;;;1.10;;
45059;SDS011;30799;49.060;9.312;2023-04-21T13:39:00;1.17;;;1.17;;
45059;SDS011;30799;49.060;9.312;2023-04-21T13:41:27;1.30;;;1.20;;
45059;SDS011;30799;49.060;9.312;2023-04-21T13:43:53;1.40;;;1.30;;
45059;SDS011;30799;49.060;9.312;2023-04-21T13:46:20;1.40;;;1.30;;
45059;SDS011;30799;49.060;9.312;2023-04-21T13:48:47;1.60;;;1.50;;
45059;SDS011;30799;49.060;9.312;2023-04-21T13:51:17;1.40;;;1.30;;
45059;SDS011;30799;49.060;9.312;2023-04-21T13:53:44;1.50;;;1.40;;
45059;SDS011;30799;49.060;9.312;2023-04-21T13:56:11;1.00;;;1.00;;
45059;SDS011;30799;49.060;9.312;2023-04-21T13:58:39;1.60;;;1.50;;
45059;SDS011;30799;49.060;9.312;2023-04-21T14:01:06;1.77;;;1.67;;
45059;SDS011;30799;49.060;9.312;2023-04-21T14:03:34;1.60;;;1.50;;
45059;SDS011;30799;49.060;9.312;2023-04-21T14:06:01;1.50;;;1.40;;
45059;SDS011;30799;49.060;9.312;2023-04-21T14:08:28;1.48;;;1.38;;
45059;SDS011;30799;49.060;9.312;2023-04-21T14:10:55;1.20;;;1.20;;
45059;SDS011;30799;49.060;9.312;2023-04-21T14:13:23;1.25;;;1.20;;
45059;SDS011;30799;49.060;9.312;2023-04-21T14:15:58;1.10;;;1.08;;
45059;SDS011;30799;49.060;9.312;2023-04-21T14:18:25;2.40;;;1.48;;
45059;SDS011;30799;49.060;9.312;2023-04-21T14:20:52;1.30;;;1.20;;
45059;SDS011;30799;49.060;9.312;2023-04-21T14:23:18;1.77;;;1.67;;
45059;SDS011;30799;49.060;9.312;2023-04-21T14:25:45;1.45;;;1.35;;
45059;SDS011;30799;49.060;9.312;2023-04-21T14:28:12;1.20;;;1.20;;
45059;SDS011;30799;49.060;9.312;2023-04-21T14:30:39;1.35;;;1.30;;
45059;SDS011;30799;49.060;9.312;2023-04-21T14:33:08;1.40;;;1.30;;
45059;SDS011;30799;49.060;9.312;2023-04-21T14:35:38;1.40;;;1.30;;
45059;SDS011;30799;49.060;9.312;2023-04-21T14:38:04;1.10;;;1.10;;
45059;SDS011;30799;49.060;9.312;2023-04-21T14:40:31;1.40;;;1.30;;
45059;SDS011;30799;49.060;9.312;2023-04-21T14:42:58;1.20;;;1.20;;
45059;SDS011;30799;49.060;9.312;2023-04-21T14:45:25;1.45;;;1.35;;
45059;SDS011;30799;49.060;9.312;2023-04-21T14:47:52;1.50;;;1.40;;
45059;SDS011;30799;49.060;9.312;2023-04-21T14:50:18;1.40;;;1.30;;
45059;SDS011;30799;49.060;9.312;2023-04-21T14:52:45;1.50;;;1.40;;
45059;SDS011;30799;49.060;9.312;2023-04-21T14:55:14;1.50;;;1.40;;
45059;SDS011;30799;49.060;9.312;2023-04-21T14:57:42;1.25;;;1.20;;
45059;SDS011;30799;49.060;9.312;2023-04-21T15:00:08;1.48;;;1.40;;
45059;SDS011;30799;49.060;9.312;2023-04-21T15:02:36;1.45;;;1.35;;
45059;SDS011;30799;49.060;9.312;2023-04-21T15:05:05;1.50;;;1.40;;
45059;SDS011;30799;49.060;9.312;2023-04-21T15:07:33;1.50;;;1.40;;
45059;SDS011;30799;49.060;9.312;2023-04-21T15:10:00;1.27;;;1.25;;
45059;SDS011;30799;49.060;9.312;2023-04-21T15:12:26;1.30;;;1.20;;
45059;SDS011;30799;49.060;9.312;2023-04-21T15:14:53;1.30;;;1.20;;
45059;SDS011;30799;49.060;9.312;2023-04-21T15:17:20;1.23;;;1.20;;